sensor_id;sensor_type;location;lat;lon;timestamp;temperature;humidity
15359;DHT22;7779;49.596;11.070;2023-11-19T00:00:36;7.70;79.40
15359;DHT22;7779;49.596;11.070;2023-11-19T00:03:01;7.70;79.40
15359;DHT22;7779;49.596;11.070;2023-11-19T00:05:27;7.70;79.40
15359;DHT22;7779;49.596;11.070;2023-11-19T00:07:54;7.70;79.40
15359;DHT22;7779;49.596;11.070;2023-11-19T00:10:20;7.80;79.40
15359;DHT22;7779;49.596;11.070;2023-11-19T00:12:48;7.80;79.40
15359;DHT22;7779;49.596;11.070;2023-11-19T00:15:15;7.80;79.40
15359;DHT22;7779;49.596;11.070;2023-11-19T00:17:45;7.80;79.50
15359;DHT22;7779;49.596;11.070;2023-11-19T00:20:12;7.80;80.10
15359;DHT22;7779;49.596;11.070;2023-11-19T00:22:42;7.80;79.50
15359;DHT22;7779;49.596;11.070;2023-11-19T00:25:09;7.80;79.50
15359;DHT22;7779;49.596;11.070;2023-11-19T00:27:38;7.80;79.50
15359;DHT22;7779;49.596;11.070;2023-11-19T00:30:05;7.80;79.50
15359;DHT22;7779;49.596;11.070;2023-11-19T00:32:32;7.80;79.50
15359;DHT22;7779;49.596;11.070;2023-11-19T00:34:59;7.80;79.50
15359;DHT22;7779;49.596;11.070;2023-11-19T00:37:25;7.80;79.50
15359;DHT22;7779;49.596;11.070;2023-11-19T00:39:50;7.80;79.50
15359;DHT22;7779;49.596;11.070;2023-11-19T00:42:17;7.90;79.60
15359;DHT22;7779;49.596;11.070;2023-11-19T00:44:43;7.80;79.50
15359;DHT22;7779;49.596;11.070;2023-11-19T00:47:09;7.90;79.60
15359;DHT22;7779;49.596;11.070;2023-11-19T00:49:34;7.90;79.60
15359;DHT22;7779;49.596;11.070;2023-11-19T00:52:00;7.90;79.70
15359;DHT22;7779;49.596;11.070;2023-11-19T00:54:27;7.90;79.60
15359;DHT22;7779;49.596;11.070;2023-11-19T00:56:53;7.90;79.60
15359;DHT22;7779;49.596;11.070;2023-11-19T00:59:19;7.90;79.70
15359;DHT22;7779;49.596;11.070;2023-11-19T01:01:45;7.90;79.80
15359;DHT22;7779;49.596;11.070;2023-11-19T01:04:11;7.90;79.80
15359;DHT22;7779;49.596;11.070;2023-11-19T01:06:36;7.90;79.70
15359;DHT22;7779;49.596;11.070;2023-11-19T01:09:02;7.90;79.80
15359;DHT22;7779;49.596;11.070;2023-11-19T01:11:28;7.90;80.40
15359;DHT22;7779;49.596;11.070;2023-11-19T01:13:54;7.90;79.80
15359;DHT22;7779;49.596;11.070;2023-11-19T01:16:20;7.90;79.80
15359;DHT22;7779;49.596;11.070;2023-11-19T01:18:47;7.90;80.00
15359;DHT22;7779;49.596;11.070;2023-11-19T01:21:15;8.00;79.90
15359;DHT22;7779;49.596;11.070;2023-11-19T01:23:41;8.00;79.90
15359;DHT22;7779;49.596;11.070;2023-11-19T01:26:14;8.00;80.00
15359;DHT22;7779;49.596;11.070;2023-11-19T01:28:40;8.00;80.00
15359;DHT22;7779;49.596;11.070;2023-11-19T01:31:08;8.00;80.00
15359;DHT22;7779;49.596;11.070;2023-11-19T01:33:38;8.00;80.00
15359;DHT22;7779;49.596;11.070;2023-11-19T01:36:05;8.00;80.10
15359;DHT22;7779;49.596;11.070;2023-11-19T01:38:31;8.00;80.00
15359;DHT22;7779;49.596;11.070;2023-11-19T01:40:57;8.00;80.00
15359;DHT22;7779;49.596;11.070;2023-11-19T01:43:34;8.00;79.90
15359;DHT22;7779;49.596;11.070;2023-11-19T01:46:02;8.00;80.90
15359;DHT22;7779;49.596;11.070;2023-11-19T01:48:32;8.10;80.10
15359;DHT22;7779;49.596;11.070;2023-11-19T01:50:59;8.00;80.00
15359;DHT22;7779;49.596;11.070;2023-11-19T01:53:27;8.10;80.20
15359;DHT22;7779;49.596;11.070;2023-11-19T01:55:54;8.10;80.20
15359;DHT22;7779;49.596;11.070;2023-11-19T01:58:21;8.10;80.20
15359;DHT22;7779;49.596;11.070;2023-11-19T02:00:48;8.10;80.20
15359;DHT22;7779;49.596;11.070;2023-11-19T02:03:14;8.10;80.20
15359;DHT22;7779;49.596;11.070;2023-11-19T02:05:41;8.10;80.30
15359;DHT22;7779;49.596;11.070;2023-11-19T02:08:07;8.10;80.30
15359;DHT22;7779;49.596;11.070;2023-11-19T02:10:33;8.10;80.20
15359;DHT22;7779;49.596;11.070;2023-11-19T02:13:01;8.20;80.30
15359;DHT22;7779;49.596;11.070;2023-11-19T02:15:28;8.10;80.30
15359;DHT22;7779;49.596;11.070;2023-11-19T02:17:53;8.20;80.40
15359;DHT22;7779;49.596;11.070;2023-11-19T02:20:20;8.20;80.60
15359;DHT22;7779;49.596;11.070;2023-11-19T02:22:49;8.20;80.40
15359;DHT22;7779;49.596;11.070;2023-11-19T02:25:25;8.20;80.40
15359;DHT22;7779;49.596;11.070;2023-11-19T02:28:02;8.20;80.50
15359;DHT22;7779;49.596;11.070;2023-11-19T02:30:30;8.20;80.60
15359;DHT22;7779;49.596;11.070;2023-11-19T02:32:58;8.20;80.40
15359;DHT22;7779;49.596;11.070;2023-11-19T02:35:27;8.20;80.40
15359;DHT22;7779;49.596;11.070;2023-11-19T02:37:57;8.20;80.40
15359;DHT22;7779;49.596;11.070;2023-11-19T02:40:24;8.20;80.50
15359;DHT22;7779;49.596;11.070;2023-11-19T02:42:50;8.30;80.50
15359;DHT22;7779;49.596;11.070;2023-11-19T02:45:17;8.30;80.50
15359;DHT22;7779;49.596;11.070;2023-11-19T02:47:43;8.30;80.50
15359;DHT22;7779;49.596;11.070;2023-11-19T02:50:12;8.30;80.50
15359;DHT22;7779;49.596;11.070;2023-11-19T02:52:43;8.30;80.60
15359;DHT22;7779;49.596;11.070;2023-11-19T02:55:11;8.30;80.60
15359;DHT22;7779;49.596;11.070;2023-11-19T02:57:42;8.30;80.50
15359;DHT22;7779;49.596;11.070;2023-11-19T03:00:21;8.30;80.60
15359;DHT22;7779;49.596;11.070;2023-11-19T03:02:49;8.30;80.70
15359;DHT22;7779;49.596;11.070;2023-11-19T03:05:25;8.30;80.40
15359;DHT22;7779;49.596;11.070;2023-11-19T03:07:52;8.30;80.40
15359;DHT22;7779;49.596;11.070;2023-11-19T03:10:18;8.40;80.50
15359;DHT22;7779;49.596;11.070;2023-11-19T03:12:44;8.30;80.40
15359;DHT22;7779;49.596;11.070;2023-11-19T03:15:11;8.40;80.50
15359;DHT22;7779;49.596;11.070;2023-11-19T03:17:41;8.30;80.40
15359;DHT22;7779;49.596;11.070;2023-11-19T03:20:10;8.30;80.60
15359;DHT22;7779;49.596;11.070;2023-11-19T03:22:41;8.40;80.60
15359;DHT22;7779;49.596;11.070;2023-11-19T03:25:07;8.40;80.50
15359;DHT22;7779;49.596;11.070;2023-11-19T03:27:37;8.40;80.50
15359;DHT22;7779;49.596;11.070;2023-11-19T03:30:08;8.40;80.60
15359;DHT22;7779;49.596;11.070;2023-11-19T03:32:35;8.40;80.50
15359;DHT22;7779;49.596;11.070;2023-11-19T03:35:02;8.40;80.50
15359;DHT22;7779;49.596;11.070;2023-11-19T03:37:30;8.40;80.50
15359;DHT22;7779;49.596;11.070;2023-11-19T03:39:57;8.30;80.70
15359;DHT22;7779;49.596;11.070;2023-11-19T03:42:28;8.40;80.50
15359;DHT22;7779;49.596;11.070;2023-11-19T03:44:56;8.30;80.50
15359;DHT22;7779;49.596;11.070;2023-11-19T03:47:22;8.30;80.50
15359;DHT22;7779;49.596;11.070;2023-11-19T03:49:51;8.30;80.60
15359;DHT22;7779;49.596;11.070;2023-11-19T03:52:18;8.30;80.80
15359;DHT22;7779;49.596;11.070;2023-11-19T03:54:45;8.30;80.80
15359;DHT22;7779;49.596;11.070;2023-11-19T03:57:13;8.30;81.00
15359;DHT22;7779;49.596;11.070;2023-11-19T03:59:41;8.30;81.10
15359;DHT22;7779;49.596;11.070;2023-11-19T04:02:06;8.40;81.20
15359;DHT22;7779;49.596;11.070;2023-11-19T04:04:32;8.40;81.30
15359;DHT22;7779;49.596;11.070;2023-11-19T04:07:00;8.40;81.90
15359;DHT22;7779;49.596;11.070;2023-11-19T04:09:28;8.40;81.40
15359;DHT22;7779;49.596;11.070;2023-11-19T04:11:59;8.40;81.40
15359;DHT22;7779;49.596;11.070;2023-11-19T04:14:26;8.50;81.50
15359;DHT22;7779;49.596;11.070;2023-11-19T04:16:52;8.50;81.50
15359;DHT22;7779;49.596;11.070;2023-11-19T04:19:19;8.50;81.50
15359;DHT22;7779;49.596;11.070;2023-11-19T04:21:45;8.50;81.40
15359;DHT22;7779;49.596;11.070;2023-11-19T04:24:11;8.60;81.50
15359;DHT22;7779;49.596;11.070;2023-11-19T04:26:42;8.60;81.50
15359;DHT22;7779;49.596;11.070;2023-11-19T04:29:12;8.60;82.10
15359;DHT22;7779;49.596;11.070;2023-11-19T04:31:40;8.60;81.50
15359;DHT22;7779;49.596;11.070;2023-11-19T04:34:07;8.60;81.50
15359;DHT22;7779;49.596;11.070;2023-11-19T04:36:33;8.60;81.50
15359;DHT22;7779;49.596;11.070;2023-11-19T04:39:00;8.70;81.60
15359;DHT22;7779;49.596;11.070;2023-11-19T04:41:26;8.70;81.60
15359;DHT22;7779;49.596;11.070;2023-11-19T04:43:55;8.70;81.60
15359;DHT22;7779;49.596;11.070;2023-11-19T04:46:21;8.70;81.60
15359;DHT22;7779;49.596;11.070;2023-11-19T04:48:47;8.70;81.60
15359;DHT22;7779;49.596;11.070;2023-11-19T04:51:12;8.70;81.60
15359;DHT22;7779;49.596;11.070;2023-11-19T04:53:38;8.70;81.60
15359;DHT22;7779;49.596;11.070;2023-11-19T04:56:11;8.80;82.10
15359;DHT22;7779;49.596;11.070;2023-11-19T04:58:37;8.80;81.90
15359;DHT22;7779;49.596;11.070;2023-11-19T05:01:04;8.80;81.70
15359;DHT22;7779;49.596;11.070;2023-11-19T05:03:33;8.80;81.70
15359;DHT22;7779;49.596;11.070;2023-11-19T05:05:58;8.80;81.70
15359;DHT22;7779;49.596;11.070;2023-11-19T05:08:24;8.80;81.70
15359;DHT22;7779;49.596;11.070;2023-11-19T05:10:50;8.80;81.80
15359;DHT22;7779;49.596;11.070;2023-11-19T05:13:16;8.80;81.80
15359;DHT22;7779;49.596;11.070;2023-11-19T05:15:42;8.90;82.00
15359;DHT22;7779;49.596;11.070;2023-11-19T05:18:08;8.90;81.90
15359;DHT22;7779;49.596;11.070;2023-11-19T05:20:34;8.90;81.90
15359;DHT22;7779;49.596;11.070;2023-11-19T05:23:00;8.90;81.90
15359;DHT22;7779;49.596;11.070;2023-11-19T05:25:26;8.90;81.90
15359;DHT22;7779;49.596;11.070;2023-11-19T05:27:52;9.00;82.00
15359;DHT22;7779;49.596;11.070;2023-11-19T05:30:18;9.00;82.00
15359;DHT22;7779;49.596;11.070;2023-11-19T05:32:44;9.00;82.00
15359;DHT22;7779;49.596;11.070;2023-11-19T05:35:11;9.00;82.00
15359;DHT22;7779;49.596;11.070;2023-11-19T05:37:37;9.00;82.00
15359;DHT22;7779;49.596;11.070;2023-11-19T05:40:03;9.10;82.10
15359;DHT22;7779;49.596;11.070;2023-11-19T05:42:37;9.10;82.10
15359;DHT22;7779;49.596;11.070;2023-11-19T05:45:03;9.10;82.10
15359;DHT22;7779;49.596;11.070;2023-11-19T05:47:29;10.50;82.40
15359;DHT22;7779;49.596;11.070;2023-11-19T05:49:54;9.10;82.10
15359;DHT22;7779;49.596;11.070;2023-11-19T05:52:20;9.10;82.20
15359;DHT22;7779;49.596;11.070;2023-11-19T05:54:47;9.10;82.20
15359;DHT22;7779;49.596;11.070;2023-11-19T05:57:17;9.20;82.30
15359;DHT22;7779;49.596;11.070;2023-11-19T05:59:48;9.20;82.30
15359;DHT22;7779;49.596;11.070;2023-11-19T06:02:14;9.20;82.30
15359;DHT22;7779;49.596;11.070;2023-11-19T06:04:39;9.20;82.20
15359;DHT22;7779;49.596;11.070;2023-11-19T06:07:05;9.20;82.20
15359;DHT22;7779;49.596;11.070;2023-11-19T06:09:31;9.30;82.40
15359;DHT22;7779;49.596;11.070;2023-11-19T06:11:59;9.30;82.40
15359;DHT22;7779;49.596;11.070;2023-11-19T06:14:27;9.30;82.30
15359;DHT22;7779;49.596;11.070;2023-11-19T06:16:53;9.30;82.40
15359;DHT22;7779;49.596;11.070;2023-11-19T06:19:18;9.30;83.00
15359;DHT22;7779;49.596;11.070;2023-11-19T06:21:44;9.30;82.50
15359;DHT22;7779;49.596;11.070;2023-11-19T06:24:10;9.30;82.60
15359;DHT22;7779;49.596;11.070;2023-11-19T06:26:35;9.40;82.70
15359;DHT22;7779;49.596;11.070;2023-11-19T06:29:01;9.40;82.80
15359;DHT22;7779;49.596;11.070;2023-11-19T06:31:27;9.40;82.80
15359;DHT22;7779;49.596;11.070;2023-11-19T06:33:53;9.50;82.90
15359;DHT22;7779;49.596;11.070;2023-11-19T06:36:18;9.50;82.90
15359;DHT22;7779;49.596;11.070;2023-11-19T06:38:44;9.60;82.90
15359;DHT22;7779;49.596;11.070;2023-11-19T06:41:10;9.50;82.80
15359;DHT22;7779;49.596;11.070;2023-11-19T06:43:37;9.60;82.90
15359;DHT22;7779;49.596;11.070;2023-11-19T06:46:03;9.60;82.90
15359;DHT22;7779;49.596;11.070;2023-11-19T06:48:32;9.60;82.90
15359;DHT22;7779;49.596;11.070;2023-11-19T06:50:59;9.60;82.90
15359;DHT22;7779;49.596;11.070;2023-11-19T06:53:25;9.70;82.90
15359;DHT22;7779;49.596;11.070;2023-11-19T06:55:50;9.70;83.00
15359;DHT22;7779;49.596;11.070;2023-11-19T06:58:16;9.70;82.90
15359;DHT22;7779;49.596;11.070;2023-11-19T07:00:43;9.70;83.50
15359;DHT22;7779;49.596;11.070;2023-11-19T07:03:09;9.70;82.90
15359;DHT22;7779;49.596;11.070;2023-11-19T07:05:36;9.80;83.00
15359;DHT22;7779;49.596;11.070;2023-11-19T07:08:05;9.80;83.00
15359;DHT22;7779;49.596;11.070;2023-11-19T07:10:32;9.80;83.00
15359;DHT22;7779;49.596;11.070;2023-11-19T07:12:59;9.80;83.00
15359;DHT22;7779;49.596;11.070;2023-11-19T07:15:25;9.80;83.00
15359;DHT22;7779;49.596;11.070;2023-11-19T07:17:51;9.90;83.20
15359;DHT22;7779;49.596;11.070;2023-11-19T07:20:19;9.90;83.20
15359;DHT22;7779;49.596;11.070;2023-11-19T07:22:45;9.90;83.20
15359;DHT22;7779;49.596;11.070;2023-11-19T07:25:13;10.00;82.30
15359;DHT22;7779;49.596;11.070;2023-11-19T07:27:39;10.00;82.40
15359;DHT22;7779;49.596;11.070;2023-11-19T07:30:06;10.00;82.40
15359;DHT22;7779;49.596;11.070;2023-11-19T07:32:33;10.00;82.40
15359;DHT22;7779;49.596;11.070;2023-11-19T07:34:58;10.00;82.40
15359;DHT22;7779;49.596;11.070;2023-11-19T07:37:25;10.10;82.50
15359;DHT22;7779;49.596;11.070;2023-11-19T07:39:51;10.10;82.50
15359;DHT22;7779;49.596;11.070;2023-11-19T07:42:16;10.10;82.50
15359;DHT22;7779;49.596;11.070;2023-11-19T07:44:43;10.20;82.70
15359;DHT22;7779;49.596;11.070;2023-11-19T07:47:09;10.20;82.80
15359;DHT22;7779;49.596;11.070;2023-11-19T07:49:35;10.20;82.80
15359;DHT22;7779;49.596;11.070;2023-11-19T07:52:01;10.20;82.90
15359;DHT22;7779;49.596;11.070;2023-11-19T07:54:28;10.30;83.60
15359;DHT22;7779;49.596;11.070;2023-11-19T07:56:54;10.30;83.00
15359;DHT22;7779;49.596;11.070;2023-11-19T07:59:20;10.40;83.80
15359;DHT22;7779;49.596;11.070;2023-11-19T08:01:46;10.40;83.20
15359;DHT22;7779;49.596;11.070;2023-11-19T08:04:13;10.40;83.20
15359;DHT22;7779;49.596;11.070;2023-11-19T08:06:39;10.50;83.20
15359;DHT22;7779;49.596;11.070;2023-11-19T08:09:05;10.50;83.10
15359;DHT22;7779;49.596;11.070;2023-11-19T08:11:32;10.50;83.10
15359;DHT22;7779;49.596;11.070;2023-11-19T08:13:58;10.60;83.10
15359;DHT22;7779;49.596;11.070;2023-11-19T08:16:24;10.60;83.00
15359;DHT22;7779;49.596;11.070;2023-11-19T08:18:50;10.60;82.90
15359;DHT22;7779;49.596;11.070;2023-11-19T08:21:16;10.70;82.90
15359;DHT22;7779;49.596;11.070;2023-11-19T08:23:41;10.70;82.90
15359;DHT22;7779;49.596;11.070;2023-11-19T08:26:07;10.70;82.80
15359;DHT22;7779;49.596;11.070;2023-11-19T08:28:34;10.70;82.80
15359;DHT22;7779;49.596;11.070;2023-11-19T08:31:00;10.70;82.80
15359;DHT22;7779;49.596;11.070;2023-11-19T08:33:26;10.70;82.80
15359;DHT22;7779;49.596;11.070;2023-11-19T08:35:52;10.80;83.00
15359;DHT22;7779;49.596;11.070;2023-11-19T08:38:18;10.80;83.10
15359;DHT22;7779;49.596;11.070;2023-11-19T08:40:44;10.80;83.20
15359;DHT22;7779;49.596;11.070;2023-11-19T08:43:09;10.80;83.30
15359;DHT22;7779;49.596;11.070;2023-11-19T08:45:35;10.90;83.50
15359;DHT22;7779;49.596;11.070;2023-11-19T08:48:01;10.90;83.50
15359;DHT22;7779;49.596;11.070;2023-11-19T08:50:27;11.00;83.60
15359;DHT22;7779;49.596;11.070;2023-11-19T08:52:53;11.00;83.60
15359;DHT22;7779;49.596;11.070;2023-11-19T08:55:18;11.00;83.70
15359;DHT22;7779;49.596;11.070;2023-11-19T08:57:44;11.10;83.80
15359;DHT22;7779;49.596;11.070;2023-11-19T09:00:10;11.10;84.40
15359;DHT22;7779;49.596;11.070;2023-11-19T09:02:39;11.10;84.00
15359;DHT22;7779;49.596;11.070;2023-11-19T09:05:06;11.20;84.30
15359;DHT22;7779;49.596;11.070;2023-11-19T09:07:34;11.20;84.50
15359;DHT22;7779;49.596;11.070;2023-11-19T09:10:00;11.30;85.30
15359;DHT22;7779;49.596;11.070;2023-11-19T09:12:27;11.40;84.90
15359;DHT22;7779;49.596;11.070;2023-11-19T09:14:53;11.40;84.90
15359;DHT22;7779;49.596;11.070;2023-11-19T09:17:18;11.40;85.00
15359;DHT22;7779;49.596;11.070;2023-11-19T09:19:44;11.50;85.20
15359;DHT22;7779;49.596;11.070;2023-11-19T09:22:11;11.60;85.50
15359;DHT22;7779;49.596;11.070;2023-11-19T09:24:36;11.60;85.60
15359;DHT22;7779;49.596;11.070;2023-11-19T09:27:02;11.70;86.10
15359;DHT22;7779;49.596;11.070;2023-11-19T09:29:31;11.80;86.80
15359;DHT22;7779;49.596;11.070;2023-11-19T09:31:58;12.00;87.70
15359;DHT22;7779;49.596;11.070;2023-11-19T09:34:23;12.10;88.20
15359;DHT22;7779;49.596;11.070;2023-11-19T09:36:49;12.30;88.50
15359;DHT22;7779;49.596;11.070;2023-11-19T09:39:15;12.40;88.60
15359;DHT22;7779;49.596;11.070;2023-11-19T09:41:43;12.50;88.60
15359;DHT22;7779;49.596;11.070;2023-11-19T09:44:11;12.70;88.70
15359;DHT22;7779;49.596;11.070;2023-11-19T09:46:39;12.80;88.60
15359;DHT22;7779;49.596;11.070;2023-11-19T09:49:08;12.90;88.60
15359;DHT22;7779;49.596;11.070;2023-11-19T09:51:36;13.10;88.60
15359;DHT22;7779;49.596;11.070;2023-11-19T09:54:02;13.20;88.50
15359;DHT22;7779;49.596;11.070;2023-11-19T09:56:29;13.30;88.30
15359;DHT22;7779;49.596;11.070;2023-11-19T09:58:56;13.40;88.30
15359;DHT22;7779;49.596;11.070;2023-11-19T10:01:21;13.50;88.30
15359;DHT22;7779;49.596;11.070;2023-11-19T10:03:48;13.60;88.10
15359;DHT22;7779;49.596;11.070;2023-11-19T10:06:15;13.70;87.90
15359;DHT22;7779;49.596;11.070;2023-11-19T10:08:42;13.80;87.70
15359;DHT22;7779;49.596;11.070;2023-11-19T10:11:08;13.90;88.30
15359;DHT22;7779;49.596;11.070;2023-11-19T10:13:37;14.00;87.40
15359;DHT22;7779;49.596;11.070;2023-11-19T10:16:10;14.10;87.00
15359;DHT22;7779;49.596;11.070;2023-11-19T10:18:45;14.10;86.20
15359;DHT22;7779;49.596;11.070;2023-11-19T10:21:13;14.20;85.80
15359;DHT22;7779;49.596;11.070;2023-11-19T10:23:53;14.30;85.60
15359;DHT22;7779;49.596;11.070;2023-11-19T10:26:20;14.30;85.00
15359;DHT22;7779;49.596;11.070;2023-11-19T10:28:47;14.30;84.70
15359;DHT22;7779;49.596;11.070;2023-11-19T10:31:17;14.40;84.60
15359;DHT22;7779;49.596;11.070;2023-11-19T10:33:45;14.40;84.50
15359;DHT22;7779;49.596;11.070;2023-11-19T10:36:14;14.40;84.60
15359;DHT22;7779;49.596;11.070;2023-11-19T10:38:40;14.50;83.90
15359;DHT22;7779;49.596;11.070;2023-11-19T10:41:27;14.50;84.50
15359;DHT22;7779;49.596;11.070;2023-11-19T10:43:53;14.50;83.80
15359;DHT22;7779;49.596;11.070;2023-11-19T10:46:19;14.50;83.80
15359;DHT22;7779;49.596;11.070;2023-11-19T10:48:48;14.60;83.60
15359;DHT22;7779;49.596;11.070;2023-11-19T10:51:18;14.60;83.60
15359;DHT22;7779;49.596;11.070;2023-11-19T10:53:49;14.60;83.70
15359;DHT22;7779;49.596;11.070;2023-11-19T10:56:20;14.60;84.00
15359;DHT22;7779;49.596;11.070;2023-11-19T10:58:51;14.70;84.00
15359;DHT22;7779;49.596;11.070;2023-11-19T11:01:23;14.70;83.80
15359;DHT22;7779;49.596;11.070;2023-11-19T11:03:51;14.70;83.30
15359;DHT22;7779;49.596;11.070;2023-11-19T11:06:19;14.80;83.30
15359;DHT22;7779;49.596;11.070;2023-11-19T11:08:48;14.80;83.00
15359;DHT22;7779;49.596;11.070;2023-11-19T11:11:15;14.80;82.90
15359;DHT22;7779;49.596;11.070;2023-11-19T11:13:43;14.80;82.80
15359;DHT22;7779;49.596;11.070;2023-11-19T11:16:10;14.80;83.20
15359;DHT22;7779;49.596;11.070;2023-11-19T11:18:36;14.80;83.20
15359;DHT22;7779;49.596;11.070;2023-11-19T11:21:12;14.80;84.00
15359;DHT22;7779;49.596;11.070;2023-11-19T11:23:56;14.90;83.60
15359;DHT22;7779;49.596;11.070;2023-11-19T11:26:51;15.00;83.40
15359;DHT22;7779;49.596;11.070;2023-11-19T11:32:15;15.00;83.00
15359;DHT22;7779;49.596;11.070;2023-11-19T11:35:03;15.00;82.70
15359;DHT22;7779;49.596;11.070;2023-11-19T11:37:53;15.00;82.00
15359;DHT22;7779;49.596;11.070;2023-11-19T11:40:26;15.10;81.80
15359;DHT22;7779;49.596;11.070;2023-11-19T11:42:52;15.10;82.40
15359;DHT22;7779;49.596;11.070;2023-11-19T11:45:18;15.10;82.10
15359;DHT22;7779;49.596;11.070;2023-11-19T11:50:20;15.20;80.70
15359;DHT22;7779;49.596;11.070;2023-11-19T11:55:34;15.20;80.30
15359;DHT22;7779;49.596;11.070;2023-11-19T11:58:03;15.20;81.00
15359;DHT22;7779;49.596;11.070;2023-11-19T12:00:36;15.20;79.30
15359;DHT22;7779;49.596;11.070;2023-11-19T12:03:05;15.20;81.10
15359;DHT22;7779;49.596;11.070;2023-11-19T12:05:41;15.20;80.90
15359;DHT22;7779;49.596;11.070;2023-11-19T12:08:11;15.20;80.10
15359;DHT22;7779;49.596;11.070;2023-11-19T12:10:51;15.20;80.30
15359;DHT22;7779;49.596;11.070;2023-11-19T12:13:19;15.20;79.60
15359;DHT22;7779;49.596;11.070;2023-11-19T12:18:27;15.20;79.60
15359;DHT22;7779;49.596;11.070;2023-11-19T12:20:58;15.20;80.10
15359;DHT22;7779;49.596;11.070;2023-11-19T12:23:28;15.20;80.00
15359;DHT22;7779;49.596;11.070;2023-11-19T12:25:55;15.20;79.90
15359;DHT22;7779;49.596;11.070;2023-11-19T12:28:21;15.20;79.80
15359;DHT22;7779;49.596;11.070;2023-11-19T12:30:49;15.10;78.30
15359;DHT22;7779;49.596;11.070;2023-11-19T12:33:16;15.10;79.60
15359;DHT22;7779;49.596;11.070;2023-11-19T12:35:47;15.10;79.60
15359;DHT22;7779;49.596;11.070;2023-11-19T12:38:24;15.10;79.50
15359;DHT22;7779;49.596;11.070;2023-11-19T12:41:08;15.10;79.20
15359;DHT22;7779;49.596;11.070;2023-11-19T12:43:39;15.10;79.20
15359;DHT22;7779;49.596;11.070;2023-11-19T12:46:18;15.00;79.40
15359;DHT22;7779;49.596;11.070;2023-11-19T12:48:48;15.00;79.30
15359;DHT22;7779;49.596;11.070;2023-11-19T12:51:15;14.90;79.40
15359;DHT22;7779;49.596;11.070;2023-11-19T12:53:49;14.90;79.50
15359;DHT22;7779;49.596;11.070;2023-11-19T12:56:16;14.80;80.20
15359;DHT22;7779;49.596;11.070;2023-11-19T12:58:42;14.80;79.40
15359;DHT22;7779;49.596;11.070;2023-11-19T13:01:09;14.80;80.00
15359;DHT22;7779;49.596;11.070;2023-11-19T13:03:38;14.80;80.10
15359;DHT22;7779;49.596;11.070;2023-11-19T13:06:08;14.70;80.20
15359;DHT22;7779;49.596;11.070;2023-11-19T13:08:46;14.70;80.40
15359;DHT22;7779;49.596;11.070;2023-11-19T13:11:18;14.80;80.90
15359;DHT22;7779;49.596;11.070;2023-11-19T13:13:57;14.80;81.10
15359;DHT22;7779;49.596;11.070;2023-11-19T13:16:27;14.80;81.00
15359;DHT22;7779;49.596;11.070;2023-11-19T13:18:54;14.80;80.70
15359;DHT22;7779;49.596;11.070;2023-11-19T13:21:20;14.80;80.40
15359;DHT22;7779;49.596;11.070;2023-11-19T13:23:45;14.80;80.30
15359;DHT22;7779;49.596;11.070;2023-11-19T13:26:12;14.80;80.00
15359;DHT22;7779;49.596;11.070;2023-11-19T13:28:38;14.80;79.80
15359;DHT22;7779;49.596;11.070;2023-11-19T13:31:04;14.80;79.60
15359;DHT22;7779;49.596;11.070;2023-11-19T13:33:30;14.80;79.50
15359;DHT22;7779;49.596;11.070;2023-11-19T13:35:56;14.80;79.40
15359;DHT22;7779;49.596;11.070;2023-11-19T13:38:22;14.70;79.30
15359;DHT22;7779;49.596;11.070;2023-11-19T13:40:51;14.70;79.20
15359;DHT22;7779;49.596;11.070;2023-11-19T13:43:17;14.70;79.20
15359;DHT22;7779;49.596;11.070;2023-11-19T13:45:42;14.70;79.20
15359;DHT22;7779;49.596;11.070;2023-11-19T13:48:08;14.70;79.20
15359;DHT22;7779;49.596;11.070;2023-11-19T13:50:35;14.70;79.20
15359;DHT22;7779;49.596;11.070;2023-11-19T13:53:00;14.70;79.20
15359;DHT22;7779;49.596;11.070;2023-11-19T13:55:26;14.70;79.20
15359;DHT22;7779;49.596;11.070;2023-11-19T13:57:52;14.70;79.10
15359;DHT22;7779;49.596;11.070;2023-11-19T14:00:18;14.70;78.90
15359;DHT22;7779;49.596;11.070;2023-11-19T14:02:45;14.60;78.60
15359;DHT22;7779;49.596;11.070;2023-11-19T14:05:13;14.60;78.50
15359;DHT22;7779;49.596;11.070;2023-11-19T14:07:40;14.50;78.40
15359;DHT22;7779;49.596;11.070;2023-11-19T14:10:07;14.50;77.90
15359;DHT22;7779;49.596;11.070;2023-11-19T14:12:35;14.40;78.40
15359;DHT22;7779;49.596;11.070;2023-11-19T14:15:05;14.40;78.50
15359;DHT22;7779;49.596;11.070;2023-11-19T14:17:32;14.30;78.50
15359;DHT22;7779;49.596;11.070;2023-11-19T14:19:59;14.20;78.60
15359;DHT22;7779;49.596;11.070;2023-11-19T14:22:25;14.20;78.70
15359;DHT22;7779;49.596;11.070;2023-11-19T14:24:51;14.10;78.70
15359;DHT22;7779;49.596;11.070;2023-11-19T14:27:17;14.10;78.80
15359;DHT22;7779;49.596;11.070;2023-11-19T14:29:43;14.10;79.00
15359;DHT22;7779;49.596;11.070;2023-11-19T14:32:10;14.00;78.80
15359;DHT22;7779;49.596;11.070;2023-11-19T14:34:36;14.00;78.70
15359;DHT22;7779;49.596;11.070;2023-11-19T14:37:02;13.90;78.50
15359;DHT22;7779;49.596;11.070;2023-11-19T14:39:28;13.80;78.30
15359;DHT22;7779;49.596;11.070;2023-11-19T14:41:59;13.80;78.30
15359;DHT22;7779;49.596;11.070;2023-11-19T14:44:29;13.70;78.40
15359;DHT22;7779;49.596;11.070;2023-11-19T14:46:55;13.70;78.60
15359;DHT22;7779;49.596;11.070;2023-11-19T14:49:21;13.60;78.60
15359;DHT22;7779;49.596;11.070;2023-11-19T14:51:47;13.60;78.90
15359;DHT22;7779;49.596;11.070;2023-11-19T14:54:12;13.60;79.20
15359;DHT22;7779;49.596;11.070;2023-11-19T14:56:40;13.50;79.40
15359;DHT22;7779;49.596;11.070;2023-11-19T14:59:06;13.50;79.60
15359;DHT22;7779;49.596;11.070;2023-11-19T15:01:32;13.40;79.80
15359;DHT22;7779;49.596;11.070;2023-11-19T15:03:58;13.40;80.00
15359;DHT22;7779;49.596;11.070;2023-11-19T15:06:25;13.40;80.20
15359;DHT22;7779;49.596;11.070;2023-11-19T15:08:56;13.40;80.40
15359;DHT22;7779;49.596;11.070;2023-11-19T15:11:22;13.40;80.50
15359;DHT22;7779;49.596;11.070;2023-11-19T15:13:48;13.40;80.60
15359;DHT22;7779;49.596;11.070;2023-11-19T15:16:14;13.30;80.70
15359;DHT22;7779;49.596;11.070;2023-11-19T15:18:42;13.30;80.80
15359;DHT22;7779;49.596;11.070;2023-11-19T15:21:08;13.30;80.90
15359;DHT22;7779;49.596;11.070;2023-11-19T15:23:34;13.30;81.00
15359;DHT22;7779;49.596;11.070;2023-11-19T15:26:00;13.30;81.20
15359;DHT22;7779;49.596;11.070;2023-11-19T15:28:26;13.30;81.20
15359;DHT22;7779;49.596;11.070;2023-11-19T15:30:51;13.30;81.20
15359;DHT22;7779;49.596;11.070;2023-11-19T15:33:17;13.30;81.20
15359;DHT22;7779;49.596;11.070;2023-11-19T15:35:43;13.30;81.30
15359;DHT22;7779;49.596;11.070;2023-11-19T15:38:09;13.30;81.30
15359;DHT22;7779;49.596;11.070;2023-11-19T15:40:35;13.20;81.30
15359;DHT22;7779;49.596;11.070;2023-11-19T15:43:03;13.30;81.40
15359;DHT22;7779;49.596;11.070;2023-11-19T15:45:30;13.20;81.30
15359;DHT22;7779;49.596;11.070;2023-11-19T15:47:55;13.20;81.30
15359;DHT22;7779;49.596;11.070;2023-11-19T15:50:21;13.20;81.40